Time;durP1;ratioP1;P1;durP2;ratioP2;P2;SDS_P1;SDS_P2;PMS_P1;PMS_P2;Temp;Humidity;BMP_temperature;BMP_pressure;BME280_temperature;BME280_humidity;BME280_pressure;Samples;Min_cycle;Max_cycle;Signal;HPM_P1;HPM_P2
2023/01/22 00:00:16;;;;;;;19.83;11.68;;;;;;;;;;6200330;23;20020;-75
2023/01/22 00:02:42;;;;;;;21.30;11.90;;;;;;;;;;6173335;23;20016;-75
2023/01/22 00:05:08;;;;;;;17.80;11.82;;;;;;;;;;6202351;23;20020;-75
2023/01/22 00:07:34;;;;;;;21.35;11.43;;;;;;;;;;6203774;23;20553;-76
2023/01/22 00:10:00;;;;;;;20.45;12.40;;;;;;;;;;6190623;23;20834;-76
2023/01/22 00:12:27;;;;;;;21.50;13.13;;;;;;;;;;6190564;23;20020;-75
2023/01/22 00:14:53;;;;;;;18.55;11.63;;;;;;;;;;6215956;23;20080;-76
2023/01/22 00:17:19;;;;;;;17.50;11.68;;;;;;;;;;6217043;23;20024;-76
2023/01/22 00:19:45;;;;;;;27.73;12.50;;;;;;;;;;6232658;23;20027;-76
2023/01/22 00:22:11;;;;;;;18.85;12.60;;;;;;;;;;6173739;23;20111;-76
2023/01/22 00:24:40;;;;;;;24.73;12.57;;;;;;;;;;6175255;23;20027;-75
2023/01/22 00:27:06;;;;;;;19.75;12.57;;;;;;;;;;6198675;23;20043;-75
2023/01/22 00:29:32;;;;;;;24.27;12.52;;;;;;;;;;6174593;23;20353;-75
2023/01/22 00:31:58;;;;;;;24.00;12.73;;;;;;;;;;6226904;23;20012;-76
2023/01/22 00:34:24;;;;;;;22.85;13.85;;;;;;;;;;6225200;23;20059;-75
2023/01/22 00:36:53;;;;;;;25.00;14.13;;;;;;;;;;6226872;23;20075;-76
2023/01/22 00:39:19;;;;;;;18.67;12.77;;;;;;;;;;6200203;23;20111;-75
2023/01/22 00:41:46;;;;;;;22.25;13.60;;;;;;;;;;6174783;23;20016;-76
2023/01/22 00:44:12;;;;;;;23.05;13.20;;;;;;;;;;6200299;23;20020;-75
2023/01/22 00:46:38;;;;;;;24.90;13.30;;;;;;;;;;6227841;23;20058;-75
2023/01/22 00:49:04;;;;;;;27.02;14.40;;;;;;;;;;6204039;23;20022;-75
2023/01/22 00:51:32;;;;;;;22.52;13.65;;;;;;;;;;6187435;23;20039;-75
2023/01/22 00:53:58;;;;;;;33.25;14.60;;;;;;;;;;6215932;23;20020;-76
2023/01/22 00:56:24;;;;;;;25.05;13.73;;;;;;;;;;6216339;23;20012;-74
2023/01/22 00:58:50;;;;;;;21.15;13.57;;;;;;;;;;6200936;23;20004;-74
2023/01/22 01:01:16;;;;;;;25.02;13.00;;;;;;;;;;6200527;23;20000;-74
2023/01/22 01:03:42;;;;;;;23.50;13.50;;;;;;;;;;6177592;23;20023;-76
2023/01/22 01:06:12;;;;;;;20.38;12.90;;;;;;;;;;6173733;23;20052;-76
2023/01/22 01:08:39;;;;;;;26.73;13.75;;;;;;;;;;6198184;23;20094;-76
2023/01/22 01:11:07;;;;;;;23.60;13.55;;;;;;;;;;6172171;23;20034;-77
2023/01/22 01:13:40;;;;;;;25.35;13.68;;;;;;;;;;6197031;23;20064;-76
2023/01/22 01:16:08;;;;;;;23.42;12.75;;;;;;;;;;6196216;23;20020;-76
2023/01/22 01:18:35;;;;;;;20.70;12.65;;;;;;;;;;6196389;23;20047;-76
2023/01/22 01:21:03;;;;;;;23.20;13.40;;;;;;;;;;6171978;23;20020;-76
2023/01/22 01:23:29;;;;;;;25.23;12.43;;;;;;;;;;6196215;23;20039;-77
2023/01/22 01:25:55;;;;;;;21.17;11.75;;;;;;;;;;6196747;23;20020;-76
2023/01/22 01:28:21;;;;;;;18.70;10.43;;;;;;;;;;6221999;23;20803;-76
2023/01/22 01:30:47;;;;;;;18.88;11.65;;;;;;;;;;6222970;23;20016;-76
2023/01/22 01:33:13;;;;;;;21.52;10.05;;;;;;;;;;6171065;23;20091;-76
2023/01/22 01:35:39;;;;;;;19.88;9.50;;;;;;;;;;6196227;23;20035;-77
2023/01/22 01:38:06;;;;;;;16.70;8.05;;;;;;;;;;6197089;23;20048;-76
2023/01/22 01:40:32;;;;;;;14.13;6.75;;;;;;;;;;6197048;23;20019;-76
2023/01/22 01:42:59;;;;;;;13.98;6.47;;;;;;;;;;6197235;23;20529;-76
2023/01/22 01:45:34;;;;;;;10.15;6.50;;;;;;;;;;6201974;23;20058;-76
2023/01/22 01:48:06;;;;;;;11.00;6.68;;;;;;;;;;6209763;23;20020;-77
2023/01/22 01:50:33;;;;;;;10.10;5.97;;;;;;;;;;6214241;23;20087;-75
2023/01/22 01:53:00;;;;;;;13.70;6.28;;;;;;;;;;6188442;23;20027;-75
2023/01/22 01:55:27;;;;;;;12.23;5.82;;;;;;;;;;6216681;23;20016;-75
2023/01/22 01:57:55;;;;;;;7.90;4.93;;;;;;;;;;6212312;23;20026;-75
2023/01/22 02:00:22;;;;;;;8.02;4.78;;;;;;;;;;6196432;23;20692;-76
2023/01/22 02:02:48;;;;;;;9.40;5.57;;;;;;;;;;6224908;23;20086;-76
2023/01/22 02:05:14;;;;;;;11.45;5.05;;;;;;;;;;6173122;23;20410;-76
2023/01/22 02:07:40;;;;;;;5.63;3.65;;;;;;;;;;6194701;23;20023;-76
2023/01/22 02:10:06;;;;;;;6.03;4.18;;;;;;;;;;6173525;23;20366;-76
2023/01/22 02:12:33;;;;;;;10.13;4.75;;;;;;;;;;6198631;23;20026;-76
2023/01/22 02:15:02;;;;;;;10.88;5.20;;;;;;;;;;6195952;23;20020;-76
2023/01/22 02:17:28;;;;;;;9.40;5.10;;;;;;;;;;6196115;23;20016;-76
2023/01/22 02:19:54;;;;;;;8.27;5.28;;;;;;;;;;6224312;23;20016;-76
2023/01/22 02:22:23;;;;;;;9.15;5.07;;;;;;;;;;6196191;23;20058;-76
2023/01/22 02:24:49;;;;;;;7.90;4.63;;;;;;;;;;6170651;23;20028;-76
2023/01/22 02:27:15;;;;;;;10.18;5.25;;;;;;;;;;6197754;23;20442;-76
2023/01/22 02:29:41;;;;;;;9.45;4.55;;;;;;;;;;6171058;23;20023;-75
2023/01/22 02:32:08;;;;;;;10.52;4.60;;;;;;;;;;6196401;23;20119;-76
2023/01/22 02:34:34;;;;;;;8.98;5.00;;;;;;;;;;6174644;23;20020;-76
2023/01/22 02:37:00;;;;;;;7.43;4.90;;;;;;;;;;6201737;23;20090;-75
2023/01/22 02:39:26;;;;;;;7.40;4.75;;;;;;;;;;6185966;23;20039;-75
2023/01/22 02:41:52;;;;;;;12.10;5.05;;;;;;;;;;6217096;23;20008;-75
2023/01/22 02:44:18;;;;;;;8.07;4.57;;;;;;;;;;6190698;23;20016;-75
2023/01/22 02:46:44;;;;;;;9.20;4.28;;;;;;;;;;6230445;23;20012;-75
2023/01/22 02:49:10;;;;;;;7.20;4.15;;;;;;;;;;6229544;23;20039;-76
2023/01/22 02:51:36;;;;;;;9.18;4.18;;;;;;;;;;6206658;23;20024;-76
2023/01/22 02:54:02;;;;;;;6.03;3.80;;;;;;;;;;6199178;23;20016;-77
2023/01/22 02:56:29;;;;;;;13.55;3.60;;;;;;;;;;6198087;23;20038;-76
2023/01/22 02:58:55;;;;;;;8.85;3.90;;;;;;;;;;6198683;23;20074;-76
2023/01/22 03:01:22;;;;;;;7.70;4.38;;;;;;;;;;6198277;23;20043;-76
2023/01/22 03:03:50;;;;;;;7.43;3.95;;;;;;;;;;6198627;23;20052;-76
2023/01/22 03:06:20;;;;;;;9.52;4.20;;;;;;;;;;6228345;23;20073;-76
2023/01/22 03:08:46;;;;;;;7.22;4.30;;;;;;;;;;6200057;23;20743;-76
2023/01/22 03:11:12;;;;;;;6.07;3.90;;;;;;;;;;6199073;23;20561;-76
2023/01/22 03:21:53;;;;;;;10.02;3.75;;;;;;;;;;6193300;23;20109;-77
2023/01/22 03:24:19;;;;;;;9.68;3.55;;;;;;;;;;6171137;23;20086;-77
2023/01/22 03:26:45;;;;;;;9.35;3.88;;;;;;;;;;6198882;23;20026;-77
2023/01/22 03:29:11;;;;;;;7.40;3.75;;;;;;;;;;6211334;23;20013;-76
2023/01/22 03:31:37;;;;;;;10.35;3.90;;;;;;;;;;6186678;23;20047;-76
2023/01/22 03:34:03;;;;;;;5.75;4.03;;;;;;;;;;6186753;23;20021;-74
2023/01/22 03:36:29;;;;;;;4.90;3.70;;;;;;;;;;6210374;23;20070;-76
2023/01/22 03:38:55;;;;;;;8.45;4.03;;;;;;;;;;6206706;23;20021;-76
2023/01/22 03:41:21;;;;;;;8.48;4.43;;;;;;;;;;6194546;23;20131;-76
2023/01/22 03:43:47;;;;;;;7.18;4.20;;;;;;;;;;6168246;23;20088;-75
2023/01/22 03:46:15;;;;;;;7.78;3.92;;;;;;;;;;6193223;23;20017;-76
2023/01/22 03:48:42;;;;;;;10.43;3.42;;;;;;;;;;6195297;23;20021;-75
2023/01/22 03:51:15;;;;;;;9.25;3.63;;;;;;;;;;6192434;23;20021;-75
2023/01/22 03:53:41;;;;;;;4.20;3.47;;;;;;;;;;6167902;23;20020;-75
2023/01/22 03:56:10;;;;;;;10.15;4.40;;;;;;;;;;6169286;23;20120;-75
2023/01/22 03:58:36;;;;;;;7.55;3.83;;;;;;;;;;6192922;23;20728;-76
2023/01/22 04:01:06;;;;;;;8.10;3.95;;;;;;;;;;6194101;23;20028;-76
2023/01/22 04:03:32;;;;;;;6.07;4.30;;;;;;;;;;6194229;23;20024;-75
2023/01/22 04:06:01;;;;;;;8.15;4.03;;;;;;;;;;6194112;23;20518;-76
2023/01/22 04:08:28;;;;;;;7.38;4.00;;;;;;;;;;6194405;23;20020;-75
2023/01/22 04:10:55;;;;;;;6.15;4.07;;;;;;;;;;6168051;23;20021;-76
2023/01/22 04:13:21;;;;;;;8.10;4.70;;;;;;;;;;6193365;23;20020;-76
2023/01/22 04:15:47;;;;;;;7.13;4.10;;;;;;;;;;6191900;23;20047;-75
2023/01/22 04:18:13;;;;;;;11.30;4.50;;;;;;;;;;6193398;23;20024;-76
2023/01/22 04:20:40;;;;;;;6.10;4.35;;;;;;;;;;6194142;23;20017;-75
2023/01/22 04:23:07;;;;;;;7.05;4.38;;;;;;;;;;6193670;23;20102;-76
2023/01/22 04:25:34;;;;;;;5.75;4.30;;;;;;;;;;6169061;23;20024;-77
2023/01/22 04:28:00;;;;;;;9.38;4.45;;;;;;;;;;6198588;23;20343;-77
2023/01/22 04:30:26;;;;;;;7.40;4.82;;;;;;;;;;6211690;23;20320;-76
2023/01/22 04:32:52;;;;;;;7.95;4.85;;;;;;;;;;6209176;23;20401;-77
2023/01/22 04:35:19;;;;;;;7.93;3.88;;;;;;;;;;6215584;23;20012;-76
2023/01/22 04:37:45;;;;;;;6.93;4.55;;;;;;;;;;6219711;23;20064;-76
2023/01/22 04:40:11;;;;;;;5.13;3.38;;;;;;;;;;6218615;23;20023;-76
2023/01/22 04:42:38;;;;;;;15.60;5.57;;;;;;;;;;6166973;23;20751;-76
2023/01/22 04:45:05;;;;;;;9.40;3.88;;;;;;;;;;6192250;23;20025;-76
2023/01/22 04:47:31;;;;;;;7.38;4.38;;;;;;;;;;6193320;23;20024;-76
2023/01/22 04:49:57;;;;;;;8.50;5.07;;;;;;;;;;6192495;23;20091;-76
2023/01/22 04:52:23;;;;;;;7.93;4.28;;;;;;;;;;6167050;23;20059;-75
2023/01/22 04:54:50;;;;;;;8.85;4.95;;;;;;;;;;6193073;23;20024;-76
2023/01/22 04:57:17;;;;;;;5.80;4.22;;;;;;;;;;6167973;23;20383;-76
2023/01/22 04:59:43;;;;;;;6.03;5.03;;;;;;;;;;6192810;23;20044;-75
2023/01/22 05:02:09;;;;;;;7.13;3.88;;;;;;;;;;6168365;23;20035;-75
2023/01/22 05:04:35;;;;;;;7.93;4.45;;;;;;;;;;6168875;23;20090;-76
2023/01/22 05:07:01;;;;;;;7.72;4.80;;;;;;;;;;6195673;23;20055;-74
2023/01/22 05:09:27;;;;;;;8.43;4.82;;;;;;;;;;6202487;23;20028;-76
2023/01/22 05:11:53;;;;;;;11.55;5.00;;;;;;;;;;6211147;23;20024;-76
2023/01/22 05:14:19;;;;;;;13.50;5.45;;;;;;;;;;6183138;23;20024;-76
2023/01/22 05:16:45;;;;;;;7.38;4.60;;;;;;;;;;6213263;23;20019;-76
2023/01/22 05:19:12;;;;;;;8.32;5.32;;;;;;;;;;6215382;23;20054;-76
2023/01/22 05:21:38;;;;;;;8.18;5.30;;;;;;;;;;6196152;23;20075;-76
2023/01/22 05:24:04;;;;;;;11.68;5.32;;;;;;;;;;6193372;23;20028;-76
2023/01/22 05:26:30;;;;;;;8.48;5.40;;;;;;;;;;6191841;23;20059;-75
2023/01/22 05:28:56;;;;;;;11.00;5.28;;;;;;;;;;6192354;23;20324;-77
2023/01/22 05:31:22;;;;;;;11.10;5.63;;;;;;;;;;6167982;23;20082;-76
2023/01/22 05:33:48;;;;;;;8.18;5.82;;;;;;;;;;6168521;23;20025;-76
2023/01/22 05:36:14;;;;;;;7.82;4.78;;;;;;;;;;6167886;23;20112;-76
2023/01/22 05:38:40;;;;;;;9.20;5.40;;;;;;;;;;6191721;23;20090;-75
2023/01/22 05:41:06;;;;;;;6.85;4.78;;;;;;;;;;6167118;23;20095;-76
2023/01/22 05:43:32;;;;;;;8.65;5.30;;;;;;;;;;6194331;23;20044;-76
2023/01/22 05:46:01;;;;;;;9.18;5.40;;;;;;;;;;6194042;23;20052;-76
2023/01/22 05:48:28;;;;;;;8.00;5.03;;;;;;;;;;6190903;23;20466;-77
2023/01/22 05:50:54;;;;;;;9.43;5.20;;;;;;;;;;6190374;23;20078;-75
2023/01/22 05:53:20;;;;;;;9.20;5.78;;;;;;;;;;6191528;23;20026;-76
2023/01/22 05:55:46;;;;;;;9.57;6.30;;;;;;;;;;6193393;23;20092;-76
2023/01/22 05:58:12;;;;;;;11.35;5.65;;;;;;;;;;6166674;23;20021;-76
2023/01/22 06:00:39;;;;;;;6.75;5.00;;;;;;;;;;6191846;23;20017;-76
2023/01/22 06:03:05;;;;;;;7.00;5.40;;;;;;;;;;6195332;23;20017;-76
2023/01/22 06:05:31;;;;;;;11.60;7.00;;;;;;;;;;6191772;23;20075;-76
2023/01/22 06:07:57;;;;;;;16.63;6.25;;;;;;;;;;6192589;23;20025;-75
2023/01/22 06:10:23;;;;;;;13.63;6.40;;;;;;;;;;6193205;23;20031;-75
2023/01/22 06:12:49;;;;;;;8.88;6.20;;;;;;;;;;6194636;23;20028;-75
2023/01/22 06:15:15;;;;;;;7.35;5.97;;;;;;;;;;6198400;23;20123;-75
2023/01/22 06:17:41;;;;;;;10.43;6.80;;;;;;;;;;6205174;23;20088;-75
2023/01/22 06:20:09;;;;;;;8.63;6.43;;;;;;;;;;6193933;23;20119;-75
2023/01/22 06:22:35;;;;;;;8.13;4.63;;;;;;;;;;6175463;23;20008;-75
2023/01/22 06:25:02;;;;;;;9.70;5.15;;;;;;;;;;6185113;23;20577;-76
2023/01/22 06:27:28;;;;;;;7.50;5.50;;;;;;;;;;6194678;23;20110;-75
2023/01/22 06:29:54;;;;;;;10.13;6.25;;;;;;;;;;6169523;23;20023;-75
2023/01/22 06:32:20;;;;;;;7.20;4.53;;;;;;;;;;6195230;23;20498;-76
2023/01/22 06:34:46;;;;;;;11.18;5.70;;;;;;;;;;6194212;23;20021;-76
2023/01/22 06:37:13;;;;;;;8.18;5.43;;;;;;;;;;6172012;23;20020;-76
2023/01/22 06:39:39;;;;;;;7.07;5.32;;;;;;;;;;6171432;23;20107;-76
2023/01/22 06:42:05;;;;;;;6.32;5.57;;;;;;;;;;6176596;23;20055;-77
2023/01/22 06:44:31;;;;;;;7.65;5.97;;;;;;;;;;6187930;23;20796;-76
2023/01/22 06:46:57;;;;;;;11.80;6.47;;;;;;;;;;6212042;23;20039;-77
2023/01/22 06:49:23;;;;;;;10.13;6.15;;;;;;;;;;6218012;23;20012;-75
2023/01/22 06:51:49;;;;;;;8.45;5.75;;;;;;;;;;6217564;23;20071;-76
2023/01/22 06:54:15;;;;;;;4.70;4.28;;;;;;;;;;6199083;23;20027;-75
2023/01/22 06:56:41;;;;;;;9.23;5.43;;;;;;;;;;6200725;23;20024;-76
2023/01/22 06:59:07;;;;;;;8.18;5.82;;;;;;;;;;6149974;23;20073;-75
2023/01/22 07:01:33;;;;;;;6.63;5.30;;;;;;;;;;6200654;23;20017;-76
2023/01/22 07:03:59;;;;;;;9.55;6.03;;;;;;;;;;6200651;23;20051;-75
2023/01/22 07:06:25;;;;;;;10.13;6.50;;;;;;;;;;6173902;23;20028;-76
2023/01/22 07:08:52;;;;;;;10.90;6.13;;;;;;;;;;6201825;23;20525;-75
2023/01/22 07:11:19;;;;;;;10.32;6.03;;;;;;;;;;6198906;23;20024;-75
2023/01/22 07:13:45;;;;;;;8.82;6.35;;;;;;;;;;6172499;23;20351;-76
2023/01/22 07:16:11;;;;;;;7.43;6.28;;;;;;;;;;6196778;23;20134;-73
2023/01/22 07:18:37;;;;;;;5.80;5.28;;;;;;;;;;6173693;23;20078;-75
2023/01/22 07:21:04;;;;;;;8.27;5.80;;;;;;;;;;6175327;23;20048;-74
2023/01/22 07:23:30;;;;;;;8.52;6.32;;;;;;;;;;6201625;23;20023;-74
2023/01/22 07:25:57;;;;;;;12.80;7.72;;;;;;;;;;6202815;23;20083;-76
2023/01/22 07:28:23;;;;;;;7.53;5.90;;;;;;;;;;6203333;23;20020;-75
2023/01/22 07:30:49;;;;;;;7.07;5.55;;;;;;;;;;6201985;23;20529;-75
2023/01/22 07:33:16;;;;;;;9.95;6.18;;;;;;;;;;6203120;23;20031;-76
2023/01/22 07:35:42;;;;;;;12.38;5.97;;;;;;;;;;6203587;23;20642;-75
2023/01/22 07:38:08;;;;;;;12.45;7.15;;;;;;;;;;6177210;23;20027;-76
2023/01/22 07:40:35;;;;;;;9.77;6.50;;;;;;;;;;6225520;23;20812;-75
2023/01/22 07:43:05;;;;;;;10.70;6.72;;;;;;;;;;6199787;23;20091;-76
2023/01/22 07:45:31;;;;;;;12.05;6.13;;;;;;;;;;6200363;23;20020;-76
2023/01/22 07:47:58;;;;;;;8.75;5.72;;;;;;;;;;6199897;23;20503;-76
2023/01/22 07:50:26;;;;;;;8.70;5.03;;;;;;;;;;6204551;23;20020;-76
2023/01/22 07:52:52;;;;;;;9.27;5.18;;;;;;;;;;6214376;23;20035;-76
2023/01/22 07:55:18;;;;;;;8.27;5.88;;;;;;;;;;6191379;23;20020;-75
2023/01/22 07:57:44;;;;;;;11.45;6.43;;;;;;;;;;6223218;23;20007;-75
2023/01/22 08:00:11;;;;;;;7.57;5.40;;;;;;;;;;6231215;22;20000;-76
2023/01/22 08:02:38;;;;;;;9.77;6.00;;;;;;;;;;6222493;23;20081;-75
2023/01/22 08:05:04;;;;;;;9.25;5.68;;;;;;;;;;6226214;23;20023;-76
2023/01/22 08:07:31;;;;;;;7.15;5.35;;;;;;;;;;6151904;23;20020;-75
2023/01/22 08:09:57;;;;;;;7.50;5.47;;;;;;;;;;6175441;23;20042;-75
2023/01/22 08:12:23;;;;;;;10.70;5.60;;;;;;;;;;6176349;23;20134;-76
2023/01/22 08:14:49;;;;;;;12.70;5.65;;;;;;;;;;6204469;23;20024;-76
2023/01/22 08:17:15;;;;;;;7.38;5.13;;;;;;;;;;6214559;23;20016;-75
2023/01/22 08:19:41;;;;;;;7.65;5.45;;;;;;;;;;6193413;23;20012;-75
2023/01/22 08:22:07;;;;;;;9.00;4.57;;;;;;;;;;6211387;23;20088;-76
2023/01/22 08:24:34;;;;;;;9.80;5.00;;;;;;;;;;6195309;23;20024;-75
2023/01/22 08:27:00;;;;;;;11.13;5.45;;;;;;;;;;6195767;23;20084;-75
2023/01/22 08:29:26;;;;;;;8.77;5.72;;;;;;;;;;6195018;23;20024;-76
2023/01/22 08:31:52;;;;;;;11.48;5.72;;;;;;;;;;6196197;23;20162;-75
2023/01/22 08:34:20;;;;;;;8.70;5.75;;;;;;;;;;6199656;23;20087;-75
2023/01/22 08:36:46;;;;;;;10.50;5.75;;;;;;;;;;6199677;23;20442;-76
2023/01/22 08:39:12;;;;;;;8.73;5.53;;;;;;;;;;6173330;23;20012;-76
2023/01/22 08:41:39;;;;;;;8.57;6.20;;;;;;;;;;6173243;23;20021;-76
2023/01/22 08:44:05;;;;;;;9.38;5.90;;;;;;;;;;6173197;23;20020;-76
2023/01/22 08:46:31;;;;;;;9.23;6.18;;;;;;;;;;6197923;23;20085;-75
2023/01/22 08:48:57;;;;;;;10.15;5.95;;;;;;;;;;6199896;23;20017;-77
2023/01/22 08:51:25;;;;;;;10.98;6.63;;;;;;;;;;6196632;23;20017;-75
2023/01/22 08:53:51;;;;;;;10.70;6.20;;;;;;;;;;6196630;23;20110;-74
2023/01/22 08:56:17;;;;;;;10.38;6.30;;;;;;;;;;6197132;23;20020;-76
2023/01/22 08:58:43;;;;;;;9.95;6.90;;;;;;;;;;6171126;23;20116;-76
2023/01/22 09:01:16;;;;;;;11.52;6.60;;;;;;;;;;6197708;23;20123;-75
2023/01/22 09:03:43;;;;;;;13.75;6.55;;;;;;;;;;6197716;23;20118;-75
2023/01/22 09:06:09;;;;;;;11.80;6.50;;;;;;;;;;6200113;23;20119;-76
2023/01/22 09:08:35;;;;;;;10.60;6.70;;;;;;;;;;6196919;23;20030;-76
2023/01/22 09:11:04;;;;;;;11.88;7.65;;;;;;;;;;6197799;23;20494;-76
2023/01/22 09:13:31;;;;;;;11.65;7.32;;;;;;;;;;6172319;23;20022;-77
2023/01/22 09:15:57;;;;;;;12.38;6.53;;;;;;;;;;6197416;23;20755;-76
2023/01/22 09:18:26;;;;;;;9.77;6.65;;;;;;;;;;6169938;23;20097;-76
2023/01/22 09:20:57;;;;;;;8.98;6.95;;;;;;;;;;6193948;23;20020;-77
2023/01/22 09:23:23;;;;;;;11.63;6.60;;;;;;;;;;6200800;23;20024;-83
2023/01/22 09:25:49;;;;;;;11.05;6.85;;;;;;;;;;6172859;23;20024;-77
2023/01/22 09:28:16;;;;;;;9.93;6.63;;;;;;;;;;6202358;23;20770;-76
2023/01/22 09:30:43;;;;;;;9.90;7.13;;;;;;;;;;6213265;23;20058;-75
2023/01/22 09:33:09;;;;;;;8.32;6.82;;;;;;;;;;6213495;23;20091;-76
2023/01/22 09:35:35;;;;;;;8.43;7.15;;;;;;;;;;6227585;23;20039;-75
2023/01/22 09:38:04;;;;;;;7.82;7.03;;;;;;;;;;6229593;23;20016;-75
2023/01/22 09:40:32;;;;;;;9.85;6.25;;;;;;;;;;6186688;23;20025;-76
2023/01/22 09:43:17;;;;;;;8.13;6.70;;;;;;;;;;6215269;23;20092;-76
2023/01/22 09:45:44;;;;;;;9.07;6.50;;;;;;;;;;6239487;23;20012;-76
2023/01/22 09:48:14;;;;;;;8.98;5.18;;;;;;;;;;6196400;23;20068;-76
2023/01/22 09:50:41;;;;;;;7.57;5.53;;;;;;;;;;6220267;23;20016;-76
2023/01/22 09:53:11;;;;;;;10.02;6.50;;;;;;;;;;6200829;23;20095;-75
2023/01/22 09:55:45;;;;;;;7.70;5.43;;;;;;;;;;6175063;23;20027;-77
2023/01/22 09:58:17;;;;;;;11.10;5.80;;;;;;;;;;6200583;23;20012;-77
2023/01/22 10:01:03;;;;;;;9.98;5.50;;;;;;;;;;6200463;23;20023;-77
2023/01/22 10:03:48;;;;;;;8.85;6.40;;;;;;;;;;6200896;23;20043;-76
2023/01/22 10:06:24;;;;;;;8.93;5.47;;;;;;;;;;6173779;23;20053;-76
2023/01/22 10:08:50;;;;;;;9.55;6.72;;;;;;;;;;6198203;23;20119;-76
2023/01/22 10:11:16;;;;;;;7.20;5.25;;;;;;;;;;6198175;23;20035;-77
2023/01/22 10:13:42;;;;;;;11.45;6.10;;;;;;;;;;6173783;23;20049;-77
2023/01/22 10:16:09;;;;;;;8.43;6.35;;;;;;;;;;6195287;23;20020;-77
2023/01/22 10:18:45;;;;;;;7.30;5.57;;;;;;;;;;6172460;23;20019;-75
2023/01/22 10:21:20;;;;;;;13.15;8.23;;;;;;;;;;6196766;23;20016;-76
2023/01/22 10:23:47;;;;;;;9.05;5.65;;;;;;;;;;6194825;23;20118;-75
2023/01/22 10:26:17;;;;;;;7.85;6.25;;;;;;;;;;6197550;23;20067;-75
2023/01/22 10:28:44;;;;;;;8.00;6.05;;;;;;;;;;6195218;23;20051;-78
2023/01/22 10:31:27;;;;;;;8.77;5.80;;;;;;;;;;6197256;23;20020;-77
2023/01/22 10:34:04;;;;;;;10.73;6.03;;;;;;;;;;6223230;23;20043;-76
2023/01/22 10:36:31;;;;;;;10.00;7.32;;;;;;;;;;6197324;23;20793;-76
2023/01/22 10:39:04;;;;;;;10.77;6.85;;;;;;;;;;6174732;23;20032;-77
2023/01/22 10:41:31;;;;;;;9.80;5.55;;;;;;;;;;6173352;23;20047;-77
2023/01/22 10:44:06;;;;;;;7.13;6.10;;;;;;;;;;6201732;23;20016;-76
2023/01/22 10:46:32;;;;;;;9.60;5.80;;;;;;;;;;6176324;23;20023;-77
2023/01/22 10:49:04;;;;;;;11.88;6.80;;;;;;;;;;6173076;23;20026;-75
2023/01/22 10:51:31;;;;;;;7.35;5.72;;;;;;;;;;6199019;23;20755;-76
2023/01/22 10:53:57;;;;;;;8.90;6.78;;;;;;;;;;6226204;23;20008;-75
2023/01/22 10:56:29;;;;;;;11.10;6.35;;;;;;;;;;6174502;23;20438;-76
2023/01/22 10:58:56;;;;;;;10.13;6.97;;;;;;;;;;6198984;23;20334;-75
2023/01/22 11:01:31;;;;;;;13.02;6.80;;;;;;;;;;6198785;23;20024;-77
2023/01/22 11:03:57;;;;;;;9.77;6.68;;;;;;;;;;6200971;23;20019;-77
2023/01/22 11:06:26;;;;;;;10.20;6.35;;;;;;;;;;6176472;23;20564;-78
2023/01/22 11:08:58;;;;;;;10.57;6.35;;;;;;;;;;6204667;23;20012;-77
2023/01/22 11:11:29;;;;;;;13.30;7.50;;;;;;;;;;6192721;23;20047;-77
2023/01/22 11:14:00;;;;;;;13.18;6.03;;;;;;;;;;6192950;23;20087;-77
2023/01/22 11:16:28;;;;;;;13.48;6.70;;;;;;;;;;6232789;23;20012;-75
2023/01/22 11:18:58;;;;;;;7.90;5.80;;;;;;;;;;6232619;23;20064;-75
2023/01/22 11:21:38;;;;;;;13.18;6.22;;;;;;;;;;6202279;23;20112;-76
2023/01/22 11:24:18;;;;;;;8.48;6.55;;;;;;;;;;6227240;23;20027;-77
2023/01/22 11:26:50;;;;;;;8.48;5.20;;;;;;;;;;6200044;23;20123;-76
2023/01/22 11:29:26;;;;;;;9.02;5.45;;;;;;;;;;6199525;23;20060;-77
2023/01/22 11:31:58;;;;;;;8.77;6.13;;;;;;;;;;6227949;23;20013;-76
2023/01/22 11:34:43;;;;;;;8.70;5.93;;;;;;;;;;6197635;23;20095;-76
2023/01/22 11:37:13;;;;;;;6.07;5.30;;;;;;;;;;6171285;23;20016;-78
2023/01/22 11:39:40;;;;;;;10.98;5.95;;;;;;;;;;6171181;23;20020;-77
2023/01/22 11:42:26;;;;;;;10.15;5.90;;;;;;;;;;6196820;23;20412;-77
2023/01/22 11:45:16;;;;;;;11.02;5.93;;;;;;;;;;6121568;23;20020;-77
2023/01/22 11:47:59;;;;;;;9.77;5.75;;;;;;;;;;6179714;23;20020;-77
2023/01/22 11:50:45;;;;;;;13.82;6.70;;;;;;;;;;6170515;23;20115;-75
2023/01/22 11:53:30;;;;;;;11.85;6.85;;;;;;;;;;6220439;23;20410;-74
2023/01/22 11:56:15;;;;;;;8.90;5.68;;;;;;;;;;6223268;23;20024;-78
2023/01/22 11:58:57;;;;;;;13.65;6.47;;;;;;;;;;6198904;23;20020;-76
2023/01/22 12:01:23;;;;;;;9.68;6.07;;;;;;;;;;6204918;23;20012;-76
2023/01/22 12:03:52;;;;;;;7.55;4.93;;;;;;;;;;6183588;23;20350;-76
2023/01/22 12:06:26;;;;;;;10.27;6.07;;;;;;;;;;6210073;23;20042;-76
2023/01/22 12:09:05;;;;;;;11.70;6.53;;;;;;;;;;6218079;23;20012;-81
2023/01/22 12:11:41;;;;;;;11.48;6.13;;;;;;;;;;6222937;23;20008;-81
2023/01/22 12:14:16;;;;;;;8.23;6.05;;;;;;;;;;6220653;22;20016;-81
2023/01/22 12:16:42;;;;;;;11.63;6.10;;;;;;;;;;6236880;23;20075;-82
2023/01/22 12:19:11;;;;;;;8.85;5.45;;;;;;;;;;6209921;23;20016;-82
2023/01/22 12:21:37;;;;;;;10.98;5.57;;;;;;;;;;6211164;23;20028;-81
2023/01/22 12:24:08;;;;;;;9.43;6.18;;;;;;;;;;6210627;23;20019;-82
2023/01/22 12:26:37;;;;;;;10.98;5.68;;;;;;;;;;6211274;23;20077;-82
2023/01/22 12:29:12;;;;;;;11.20;6.32;;;;;;;;;;6236631;23;20012;-81
2023/01/22 12:31:42;;;;;;;9.38;6.40;;;;;;;;;;6209955;23;20012;-81
2023/01/22 12:34:30;;;;;;;12.25;6.78;;;;;;;;;;6208997;23;20029;-81
2023/01/22 12:36:56;;;;;;;10.18;6.65;;;;;;;;;;6185107;23;20438;-82
2023/01/22 12:39:25;;;;;;;16.13;7.20;;;;;;;;;;6242250;23;20012;-82
2023/01/22 12:41:54;;;;;;;10.65;6.30;;;;;;;;;;6192532;23;20087;-82
2023/01/22 12:44:20;;;;;;;10.75;6.10;;;;;;;;;;6245135;23;20154;-82
2023/01/22 12:46:49;;;;;;;12.30;6.50;;;;;;;;;;6223814;23;20095;-82
2023/01/22 12:49:15;;;;;;;7.53;5.75;;;;;;;;;;6246680;23;20070;-82
2023/01/22 12:51:43;;;;;;;12.15;5.93;;;;;;;;;;6188964;23;20035;-81
2023/01/22 12:54:27;;;;;;;11.70;5.85;;;;;;;;;;6254434;23;20397;-81
2023/01/22 12:56:56;;;;;;;10.93;6.40;;;;;;;;;;6229976;23;20012;-82
2023/01/22 12:59:29;;;;;;;13.07;5.80;;;;;;;;;;6230630;23;20024;-81
2023/01/22 13:02:02;;;;;;;9.32;5.07;;;;;;;;;;6205949;23;20023;-81
2023/01/22 13:04:31;;;;;;;14.98;5.38;;;;;;;;;;6246353;22;20031;-81
2023/01/22 13:07:20;;;;;;;11.40;5.93;;;;;;;;;;6209853;23;20016;-82
2023/01/22 13:09:46;;;;;;;10.32;5.65;;;;;;;;;;6237364;23;20023;-81
2023/01/22 13:12:25;;;;;;;12.90;5.22;;;;;;;;;;6210156;23;20019;-81
2023/01/22 13:14:53;;;;;;;11.05;5.78;;;;;;;;;;6231144;22;20027;-76
2023/01/22 13:17:20;;;;;;;11.27;6.05;;;;;;;;;;6231602;23;20016;-76
2023/01/22 13:19:49;;;;;;;14.75;5.88;;;;;;;;;;6203810;23;20166;-76
2023/01/22 13:22:16;;;;;;;9.15;5.30;;;;;;;;;;6203271;23;20027;-76
2023/01/22 13:24:55;;;;;;;17.65;6.55;;;;;;;;;;6203542;23;20028;-76
2023/01/22 13:27:29;;;;;;;14.20;6.35;;;;;;;;;;6205220;23;20106;-76
2023/01/22 13:30:15;;;;;;;17.80;6.50;;;;;;;;;;6206198;23;20052;-76
2023/01/22 13:32:42;;;;;;;13.90;7.55;;;;;;;;;;6205419;23;20031;-76
2023/01/22 13:35:11;;;;;;;11.02;6.47;;;;;;;;;;6205419;23;20082;-76
2023/01/22 13:37:40;;;;;;;14.52;6.53;;;;;;;;;;6181304;23;20555;-75
2023/01/22 13:40:24;;;;;;;10.65;5.55;;;;;;;;;;6204962;23;20070;-76
2023/01/22 13:42:50;;;;;;;;;;;;;;;;;;6205939;23;20147;-76
2023/01/22 13:45:31;;;;;;;13.18;5.65;;;;;;;;;;6205073;23;19939;-74
2023/01/22 13:47:59;;;;;;;11.90;6.50;;;;;;;;;;6204968;23;20714;-74
2023/01/22 13:50:27;;;;;;;10.90;5.78;;;;;;;;;;6205552;23;20020;-74
2023/01/22 13:52:53;;;;;;;9.85;5.63;;;;;;;;;;6204959;23;20020;-74
2023/01/22 13:55:21;;;;;;;13.98;5.97;;;;;;;;;;6204894;23;20139;-73
2023/01/22 13:57:48;;;;;;;11.73;6.15;;;;;;;;;;6204398;23;20442;-75
2023/01/22 14:00:31;;;;;;;12.52;6.25;;;;;;;;;;6204933;23;20012;-75
2023/01/22 14:02:58;;;;;;;14.90;5.80;;;;;;;;;;6183993;23;20141;-75
2023/01/22 14:05:25;;;;;;;13.30;6.57;;;;;;;;;;6184151;23;20159;-75
2023/01/22 14:08:02;;;;;;;13.48;7.05;;;;;;;;;;6194393;23;20027;-75
2023/01/22 14:10:28;;;;;;;9.27;5.88;;;;;;;;;;6229027;23;20024;-75
2023/01/22 14:13:01;;;;;;;10.32;6.05;;;;;;;;;;6231648;23;20074;-76
2023/01/22 14:15:27;;;;;;;17.35;7.45;;;;;;;;;;6214002;23;20674;-76
2023/01/22 14:18:15;;;;;;;11.77;6.45;;;;;;;;;;6217915;23;20016;-75
2023/01/22 14:20:42;;;;;;;11.95;6.13;;;;;;;;;;6213092;23;20016;-75
2023/01/22 14:23:08;;;;;;;17.08;6.90;;;;;;;;;;6202633;23;20027;-75
2023/01/22 14:25:42;;;;;;;14.55;7.40;;;;;;;;;;6203096;23;20020;-75
2023/01/22 14:28:08;;;;;;;13.00;6.97;;;;;;;;;;6229994;23;20341;-76
2023/01/22 14:30:34;;;;;;;9.70;6.60;;;;;;;;;;6202269;23;20022;-75
2023/01/22 14:33:01;;;;;;;14.38;6.53;;;;;;;;;;6206914;23;20020;-75
2023/01/22 14:35:27;;;;;;;16.70;7.35;;;;;;;;;;6213086;23;20020;-75
2023/01/22 14:37:54;;;;;;;17.05;6.82;;;;;;;;;;6215546;23;20012;-75
2023/01/22 14:40:21;;;;;;;12.93;6.28;;;;;;;;;;6219314;23;20066;-74
2023/01/22 14:42:47;;;;;;;12.55;6.55;;;;;;;;;;6200439;23;20027;-75
2023/01/22 14:45:14;;;;;;;18.23;7.55;;;;;;;;;;6226504;23;20031;-76
2023/01/22 14:47:41;;;;;;;15.05;7.15;;;;;;;;;;6230879;23;20016;-75
2023/01/22 14:50:08;;;;;;;17.35;7.15;;;;;;;;;;6194333;23;20107;-75